Time;durP1;ratioP1;P1;durP2;ratioP2;P2;SDS_P1;SDS_P2;PMS_P1;PMS_P2;Temp;Humidity;BMP_temperature;BMP_pressure;BME280_temperature;BME280_humidity;BME280_pressure;Samples;Min_cycle;Max_cycle;Signal;HPM_P1;HPM_P2
2021/09/10 00:00:49;;;;;;;18.52;9.18;;;15.90;99.90;;;14.79;91.29;100469.03;5052856;28;20040;-75
2021/09/10 00:03:15;;;;;;;18.65;9.40;;;15.90;99.90;;;14.75;91.21;100463.94;5049416;28;20044;-75
2021/09/10 00:05:41;;;;;;;14.70;9.48;;;15.90;99.90;;;14.78;91.27;100462.88;5051238;28;20110;-74
2021/09/10 00:08:07;;;;;;;17.27;9.93;;;15.90;99.90;;;14.82;91.59;100458.25;5049823;28;20024;-75
2021/09/10 00:10:33;;;;;;;19.70;9.60;;;15.90;99.90;;;14.79;91.19;100453.13;5042180;28;20032;-75
2021/09/10 00:13:00;;;;;;;18.30;10.02;;;16.00;99.90;;;14.80;90.90;100447.72;5047534;28;20057;-75
2021/09/10 00:15:27;;;;;;;22.20;10.15;;;15.90;99.90;;;14.77;90.72;100434.66;5041816;28;20037;-75
2021/09/10 00:17:54;;;;;;;14.38;9.48;;;15.90;99.90;;;14.89;89.81;100446.25;5041534;28;20074;-75
2021/09/10 00:20:21;;;;;;;20.33;10.32;;;16.00;99.90;;;14.96;88.72;100427.13;5033550;28;20456;-74
2021/09/10 00:22:47;;;;;;;15.38;8.73;;;16.10;99.90;;;15.05;88.16;100424.81;5033659;28;20033;-74
2021/09/10 00:25:14;;;;;;;19.48;9.25;;;16.10;99.90;;;15.05;87.74;100412.41;5051089;28;20039;-75
2021/09/10 00:27:41;;;;;;;14.48;8.73;;;16.10;99.90;;;15.01;88.10;100410.06;5049877;28;20032;-75
2021/09/10 00:30:08;;;;;;;14.43;9.68;;;16.10;99.90;;;15.00;87.97;100417.19;5040931;28;20170;-75
2021/09/10 00:32:34;;;;;;;17.30;9.88;;;16.10;99.90;;;14.99;88.08;100402.25;5067688;28;20117;-75
2021/09/10 00:35:00;;;;;;;19.27;10.23;;;16.10;99.90;;;14.96;87.97;100408.59;5047848;28;20043;-75
2021/09/10 00:37:26;;;;;;;17.75;9.93;;;16.10;99.90;;;14.95;88.37;100404.25;5052971;28;20476;-75
2021/09/10 00:39:52;;;;;;;17.85;9.38;;;16.10;99.90;;;14.98;88.29;100406.69;5047561;28;20040;-75
2021/09/10 00:42:18;;;;;;;15.93;9.48;;;16.10;99.90;;;14.98;87.78;100404.03;5026574;28;20055;-75
2021/09/10 00:44:44;;;;;;;18.55;9.43;;;16.10;99.90;;;14.95;87.80;100401.59;5049077;28;20036;-75
2021/09/10 00:47:10;;;;;;;19.20;9.25;;;16.00;99.90;;;14.90;87.87;100389.63;5025901;28;20385;-75
2021/09/10 00:49:37;;;;;;;18.20;9.40;;;16.00;99.90;;;14.88;88.02;100375.63;5050097;28;20056;-75
2021/09/10 00:52:03;;;;;;;16.75;9.70;;;15.90;99.90;;;14.85;88.39;100389.94;5032258;28;20107;-75
2021/09/10 00:54:29;;;;;;;18.95;9.00;;;15.90;99.90;;;14.78;88.66;100383.38;5067595;28;20422;-75
2021/09/10 00:56:56;;;;;;;21.30;9.88;;;15.90;99.90;;;14.69;89.27;100384.88;5050242;28;20484;-75
2021/09/10 00:59:23;;;;;;;17.40;9.23;;;15.90;99.90;;;14.84;88.04;100382.97;5050398;28;20112;-74
2021/09/10 01:01:50;;;;;;;19.00;9.27;;;16.00;99.90;;;14.92;86.94;100367.38;5048507;28;20028;-75
2021/09/10 01:04:25;;;;;;;17.10;8.93;;;16.10;99.90;;;15.07;86.57;100377.81;5051505;28;20035;-75
2021/09/10 01:06:54;;;;;;;16.65;9.15;;;16.10;99.90;;;15.01;86.44;100367.66;5038538;28;20036;-74
2021/09/10 01:09:22;;;;;;;13.32;8.45;;;16.20;99.90;;;15.09;86.47;100375.91;5050586;28;20033;-75
2021/09/10 01:11:50;;;;;;;14.15;9.23;;;16.20;99.90;;;15.02;87.35;100374.66;5040901;28;20017;-75
2021/09/10 01:14:18;;;;;;;15.88;8.35;;;16.10;99.90;;;15.04;86.75;100364.78;5039986;28;20033;-75
2021/09/10 01:16:49;;;;;;;16.30;8.27;;;16.20;99.90;;;15.02;86.88;100370.19;5023101;28;20448;-75
2021/09/10 01:19:30;;;;;;;16.65;8.77;;;16.10;99.90;;;15.00;87.08;100371.28;5031935;28;20460;-74
2021/09/10 01:22:00;;;;;;;15.60;8.82;;;16.20;99.90;;;15.06;86.47;100362.88;5041672;28;20036;-75
2021/09/10 01:25:11;;;;;;;15.93;8.75;;;16.10;99.90;;;15.04;87.11;100362.16;5044211;28;20041;-74
2021/09/10 01:27:53;;;;;;;16.58;8.77;;;16.20;99.90;;;15.13;86.37;100364.97;5058205;28;20454;-74
2021/09/10 01:30:27;;;;;;;19.38;8.82;;;16.30;99.90;;;15.21;86.18;100356.47;5031653;28;20033;-75
2021/09/10 01:32:54;;;;;;;17.27;8.50;;;16.30;99.90;;;15.16;86.80;100364.78;5033715;28;20147;-74
2021/09/10 01:35:20;;;;;;;17.67;8.57;;;16.30;99.90;;;15.20;86.61;100360.06;5047250;28;20076;-75
2021/09/10 01:37:47;;;;;;;17.20;8.60;;;16.40;99.90;;;15.30;86.43;100358.47;5050857;28;20028;-75
2021/09/10 01:40:14;;;;;;;12.70;8.23;;;16.40;99.90;;;15.27;86.60;100361.34;5047817;28;20025;-75
2021/09/10 01:42:42;;;;;;;16.55;8.63;;;16.40;99.90;;;15.30;86.83;100357.63;5051586;28;20124;-75
2021/09/10 01:45:11;;;;;;;17.20;8.80;;;16.50;99.90;;;15.42;85.48;100353.22;5039666;28;20044;-75
2021/09/10 01:47:38;;;;;;;18.30;8.65;;;16.50;99.90;;;15.45;85.38;100355.66;5049585;28;20044;-75
2021/09/10 01:50:12;;;;;;;18.02;9.02;;;16.60;99.90;;;15.61;84.73;100339.47;5047920;28;20027;-74
2021/09/10 01:52:39;;;;;;;13.82;8.40;;;16.70;99.90;;;15.67;83.89;100345.16;5057958;28;20376;-75
2021/09/10 01:55:08;;;;;;;13.35;8.05;;;16.80;99.90;;;15.73;84.03;100355.34;5047670;28;21550;-74
2021/09/10 01:57:34;;;;;;;15.70;8.35;;;16.80;99.90;;;15.71;84.01;100346.66;5040813;28;20025;-75
2021/09/10 02:00:01;;;;;;;14.23;8.00;;;16.80;99.90;;;15.65;84.99;100346.25;5032114;28;20491;-75
2021/09/10 02:02:27;;;;;;;11.60;7.60;;;16.80;99.90;;;15.63;85.48;100350.81;5040112;28;20052;-75
2021/09/10 02:04:53;;;;;;;13.15;8.13;;;16.70;99.90;;;15.64;84.99;100344.56;5047414;28;20025;-74
2021/09/10 02:07:19;;;;;;;15.52;8.43;;;16.80;99.90;;;15.71;84.81;100349.31;5066281;28;20032;-75
2021/09/10 02:09:45;;;;;;;16.65;9.18;;;16.80;99.90;;;15.66;85.71;100339.97;5049703;28;20016;-75
2021/09/10 02:12:11;;;;;;;13.30;8.25;;;16.70;99.90;;;15.66;86.05;100345.25;5046123;28;20121;-75
2021/09/10 02:14:37;;;;;;;13.07;8.02;;;16.80;99.90;;;15.72;85.00;100340.41;5041671;28;20027;-75
2021/09/10 02:17:05;;;;;;;18.25;8.05;;;16.80;99.90;;;15.80;84.93;100337.16;5046177;28;20091;-75
2021/09/10 02:19:31;;;;;;;13.23;8.40;;;16.90;99.90;;;15.82;85.21;100329.94;5051881;28;20029;-75
2021/09/10 02:21:58;;;;;;;13.95;8.23;;;16.80;99.90;;;15.77;84.96;100321.47;5051145;28;20067;-75
2021/09/10 02:24:24;;;;;;;14.35;8.48;;;16.90;99.90;;;15.81;84.61;100325.59;5053686;28;20119;-75
2021/09/10 02:26:50;;;;;;;17.38;8.18;;;16.90;99.90;;;15.76;84.62;100328.56;5052692;28;20064;-74
2021/09/10 02:29:16;;;;;;;15.93;8.05;;;16.80;99.90;;;15.74;85.04;100329.66;5043039;28;20024;-75
2021/09/10 02:31:42;;;;;;;13.48;8.70;;;16.80;99.90;;;15.74;84.53;100330.53;5045009;28;20035;-75
2021/09/10 02:34:11;;;;;;;17.45;8.43;;;16.90;99.90;;;15.83;84.91;100329.00;5042816;28;20021;-75
2021/09/10 02:36:37;;;;;;;13.65;8.57;;;16.80;99.90;;;15.78;85.23;100321.34;5053366;28;20035;-75
2021/09/10 02:39:06;;;;;;;15.50;8.68;;;16.90;99.90;;;15.82;85.23;100313.16;5050697;28;20029;-75
2021/09/10 02:41:34;;;;;;;15.57;8.20;;;16.80;99.90;;;15.68;86.60;100330.06;5036165;28;20032;-75
2021/09/10 02:44:02;;;;;;;14.98;8.55;;;16.70;99.90;;;15.62;86.10;100342.00;5034128;28;20038;-75
2021/09/10 02:46:29;;;;;;;19.98;9.15;;;16.70;99.90;;;15.62;86.14;100354.44;5045751;28;21562;-75
2021/09/10 02:48:55;;;;;;;18.63;9.13;;;16.60;99.90;;;15.53;86.82;100348.00;5051169;28;20511;-74
2021/09/10 02:51:21;;;;;;;16.80;8.85;;;16.60;99.90;;;15.59;86.65;100352.84;5051306;28;20055;-75
2021/09/10 02:53:47;;;;;;;19.13;8.55;;;16.60;99.90;;;15.49;86.70;100330.59;5035492;28;20104;-75
2021/09/10 02:56:13;;;;;;;14.32;8.52;;;16.60;99.90;;;15.42;86.99;100332.88;5050277;28;20489;-75
2021/09/10 02:58:40;;;;;;;19.52;8.43;;;16.50;99.90;;;15.31;87.79;100325.69;5052391;28;20392;-75
2021/09/10 03:01:05;;;;;;;17.75;9.70;;;16.40;99.90;;;15.17;88.84;100341.75;5048980;28;20029;-75
2021/09/10 03:03:31;;;;;;;15.35;9.07;;;16.30;99.90;;;15.16;88.59;100358.59;5052603;28;20074;-74
2021/09/10 03:05:57;;;;;;;14.65;7.85;;;16.30;99.90;;;15.16;88.45;100358.59;5041397;28;20099;-75
2021/09/10 03:08:24;;;;;;;17.10;7.95;;;16.30;99.90;;;15.10;88.52;100344.00;5068156;28;20499;-75
2021/09/10 03:10:50;;;;;;;14.27;8.90;;;16.20;99.90;;;15.02;88.78;100349.00;5052395;28;20043;-74
2021/09/10 03:13:18;;;;;;;13.18;8.48;;;16.10;99.90;;;14.97;89.18;100343.19;5049335;28;20016;-75
2021/09/10 03:15:45;;;;;;;15.35;9.30;;;16.00;99.90;;;14.86;90.20;100351.03;5052589;28;20025;-74
2021/09/10 03:18:11;;;;;;;15.05;8.88;;;16.00;99.90;;;14.85;90.45;100358.13;5050411;28;20087;-75
2021/09/10 03:20:37;;;;;;;16.30;8.40;;;15.90;99.90;;;14.75;91.10;100383.56;5050224;28;20036;-75
2021/09/10 03:23:04;;;;;;;20.77;9.45;;;15.90;99.90;;;14.77;90.80;100382.53;5050716;28;20045;-75
2021/09/10 03:25:30;;;;;;;16.13;8.93;;;16.00;99.90;;;14.91;90.16;100368.31;5068147;28;20120;-75
2021/09/10 03:27:56;;;;;;;16.13;9.27;;;16.00;99.90;;;15.02;89.40;100353.44;5033529;28;20488;-75
2021/09/10 03:30:22;;;;;;;19.45;8.75;;;16.20;99.90;;;15.25;88.32;100350.00;5043941;28;20032;-74
2021/09/10 03:32:49;;;;;;;15.60;9.00;;;16.30;99.90;;;15.28;87.85;100338.31;5050563;28;20500;-75
2021/09/10 03:35:15;;;;;;;15.27;9.20;;;16.40;99.90;;;15.36;87.42;100341.28;5043664;28;20517;-75
2021/09/10 03:37:41;;;;;;;18.92;9.57;;;16.40;99.90;;;15.35;88.13;100356.31;5051802;28;20511;-74
2021/09/10 03:40:08;;;;;;;28.30;9.68;;;16.40;99.90;;;15.35;88.25;100352.81;5050099;28;20064;-74
2021/09/10 03:42:35;;;;;;;19.10;9.68;;;16.40;99.90;;;15.26;89.05;100350.84;5050682;28;20068;-75
2021/09/10 03:45:06;;;;;;;14.50;9.23;;;16.30;99.90;;;15.13;89.78;100348.22;5048615;28;20025;-75
2021/09/10 03:47:32;;;;;;;18.40;9.70;;;16.20;99.90;;;15.10;89.89;100341.34;5052169;28;20266;-75
2021/09/10 03:49:58;;;;;;;15.05;9.60;;;16.30;99.90;;;15.18;89.16;100319.56;5031280;28;20024;-74
2021/09/10 03:52:24;;;;;;;18.23;8.98;;;16.30;99.90;;;15.18;89.18;100316.91;5051818;28;20039;-75
2021/09/10 03:54:50;;;;;;;22.92;9.68;;;16.30;99.90;;;15.15;89.07;100336.53;5048976;28;20028;-75
2021/09/10 03:57:16;;;;;;;19.00;9.07;;;16.30;99.90;;;15.22;88.17;100315.72;5051567;28;20034;-75
2021/09/10 03:59:42;;;;;;;17.13;9.13;;;16.40;99.90;;;15.25;88.35;100307.56;5050032;28;20388;-75
2021/09/10 04:02:08;;;;;;;17.30;8.90;;;16.30;99.90;;;15.18;88.87;100336.34;5050734;28;20033;-75
2021/09/10 04:04:34;;;;;;;19.60;9.25;;;16.30;99.90;;;15.22;88.31;100318.38;5049556;28;20029;-75
2021/09/10 04:07:00;;;;;;;76.20;12.15;;;16.70;99.90;;;15.22;88.50;100315.72;5060273;28;20040;-75
2021/09/10 04:09:26;;;;;;;21.88;9.02;;;16.30;99.90;;;15.27;87.74;100318.03;5046387;28;20025;-75
2021/09/10 04:11:52;;;;;;;16.75;9.00;;;16.30;99.90;;;15.23;88.27;100316.59;5050642;28;20060;-75
2021/09/10 04:14:18;;;;;;;15.57;10.05;;;16.30;99.90;;;15.22;88.15;100314.88;5050392;28;20094;-75
2021/09/10 04:16:44;;;;;;;16.95;9.40;;;16.30;99.90;;;15.15;88.85;100317.97;5050779;28;20036;-74
2021/09/10 04:19:10;;;;;;;17.08;9.73;;;16.20;99.90;;;15.11;88.76;100321.81;5041880;28;20438;-74
2021/09/10 04:21:37;;;;;;;15.10;8.65;;;16.20;99.90;;;15.04;89.28;100311.78;5049339;28;20037;-75
2021/09/10 04:24:04;;;;;;;22.35;9.13;;;16.10;99.90;;;14.92;89.75;100314.34;5042485;28;20373;-75
2021/09/10 04:26:29;;;;;;;24.58;9.82;;;16.00;99.90;;;14.84;90.03;100314.03;5048982;28;20477;-75
2021/09/10 04:28:55;;;;;;;20.58;9.13;;;15.90;99.90;;;14.77;90.51;100321.59;5033410;28;20075;-75
2021/09/10 04:31:22;;;;;;;25.25;10.07;;;15.90;99.90;;;14.75;90.52;100325.28;5049368;28;20013;-75
2021/09/10 04:33:48;;;;;;;21.10;9.25;;;15.80;99.90;;;14.66;90.96;100315.31;5048779;28;20515;-75
2021/09/10 04:36:15;;;;;;;19.75;9.98;;;15.80;99.90;;;14.63;91.00;100350.00;5046598;28;20037;-75
2021/09/10 04:38:42;;;;;;;18.98;9.43;;;15.70;99.90;;;14.64;91.09;100359.63;5050273;28;20368;-74
2021/09/10 04:41:09;;;;;;;28.02;10.80;;;15.70;99.90;;;14.59;90.81;100332.63;5049058;28;20468;-75
2021/09/10 04:43:35;;;;;;;18.90;10.07;;;15.70;99.90;;;14.53;90.97;100324.09;5047555;28;20045;-75
2021/09/10 04:46:01;;;;;;;17.08;9.63;;;15.70;99.90;;;14.54;90.51;100311.72;5041663;28;20029;-75
2021/09/10 04:48:27;;;;;;;20.48;10.88;;;15.70;99.90;;;14.52;90.32;100306.50;5050572;28;20480;-75
2021/09/10 04:50:53;;;;;;;20.15;10.10;;;15.60;99.90;;;14.54;90.13;100301.13;5050086;28;20121;-74
2021/09/10 04:53:19;;;;;;;26.48;10.50;;;15.60;99.90;;;14.50;90.33;100300.47;5048074;28;20032;-74
2021/09/10 04:55:45;;;;;;;16.60;10.27;;;15.60;99.90;;;14.48;90.28;100302.38;5033533;28;20590;-75
2021/09/10 04:58:11;;;;;;;16.08;10.07;;;15.50;99.90;;;14.43;90.44;100309.81;5047217;28;20025;-74
2021/09/10 05:00:37;;;;;;;34.42;11.88;;;15.50;99.90;;;14.43;91.22;100319.56;5033431;28;20028;-74
2021/09/10 05:03:03;;;;;;;37.10;19.92;;;15.40;99.90;;;14.34;91.21;100328.97;5049257;28;20052;-75
2021/09/10 05:05:29;;;;;;;27.02;11.98;;;15.50;99.90;;;14.38;91.23;100324.31;5057570;28;20020;-75
2021/09/10 05:07:55;;;;;;;25.83;10.65;;;15.50;99.90;;;14.33;91.66;100308.75;5047886;28;20032;-75
2021/09/10 05:10:22;;;;;;;23.95;11.60;;;15.50;99.90;;;14.37;90.74;100302.28;5064122;28;20111;-74
2021/09/10 05:12:48;;;;;;;17.98;10.80;;;15.50;99.90;;;14.39;90.62;100297.72;5048628;28;20033;-75
2021/09/10 05:15:14;;;;;;;24.98;10.57;;;15.50;99.90;;;14.41;90.48;100285.22;5022724;28;20442;-75
2021/09/10 05:17:40;;;;;;;18.75;10.45;;;15.60;99.90;;;14.45;89.68;100286.72;5022570;28;20037;-75
2021/09/10 05:20:08;;;;;;;22.38;9.95;;;15.60;99.90;;;14.53;89.14;100278.22;5050223;28;20020;-75
2021/09/10 05:22:35;;;;;;;20.10;9.95;;;15.70;99.90;;;14.66;88.71;100275.56;5039427;28;20512;-75
2021/09/10 05:25:02;;;;;;;19.95;9.38;;;15.80;99.90;;;14.77;87.96;100271.22;5041582;28;20039;-75
2021/09/10 05:27:28;;;;;;;17.27;10.05;;;15.90;99.90;;;14.82;87.74;100268.25;5039895;28;20036;-75
2021/09/10 05:29:54;;;;;;;18.65;9.43;;;15.90;99.90;;;14.88;87.14;100272.25;5048183;28;20036;-75
2021/09/10 05:32:20;;;;;;;20.40;10.18;;;16.00;99.90;;;14.85;86.76;100261.88;5048934;28;20503;-75
2021/09/10 05:34:47;;;;;;;18.48;10.25;;;15.90;99.90;;;14.79;87.50;100270.25;5048015;28;20024;-74
2021/09/10 05:37:12;;;;;;;14.93;9.77;;;15.80;99.90;;;14.74;88.38;100295.28;5033270;28;20036;-74
2021/09/10 05:39:39;;;;;;;23.10;10.27;;;15.80;99.90;;;14.71;89.33;100292.03;5063912;28;20021;-75
2021/09/10 05:42:05;;;;;;;21.70;11.00;;;15.80;99.90;;;14.72;89.28;100223.00;5050354;28;20098;-75
2021/09/10 05:44:31;;;;;;;19.42;9.50;;;15.70;99.90;;;14.71;88.97;100350.31;5047250;28;20032;-75
2021/09/10 05:46:57;;;;;;;16.08;9.75;;;15.80;99.90;;;14.80;88.61;100348.81;5050775;28;20028;-74
2021/09/10 05:49:23;;;;;;;20.40;10.65;;;15.90;99.90;;;14.82;88.26;100374.25;5066221;28;20083;-74
2021/09/10 05:51:49;;;;;;;19.63;9.88;;;15.90;99.90;;;14.94;87.47;100365.44;5047412;28;20369;-75
2021/09/10 05:54:15;;;;;;;15.57;10.00;;;16.00;99.90;;;15.02;87.21;100353.44;5051656;28;20078;-75
2021/09/10 05:56:41;;;;;;;16.27;9.65;;;16.10;99.90;;;15.21;86.53;100366.25;5052262;28;20036;-75
2021/09/10 05:59:07;;;;;;;14.30;9.50;;;16.30;99.90;;;15.40;86.12;100358.66;5054615;28;20028;-74
2021/09/10 06:01:33;;;;;;;20.35;10.30;;;16.30;99.90;;;15.39;86.24;100346.34;5083233;28;20078;-75
2021/09/10 06:03:59;;;;;;;17.58;10.30;;;16.40;99.90;;;15.39;86.67;100349.84;5052514;28;20190;-75
2021/09/10 06:06:26;;;;;;;24.73;10.15;;;16.40;99.90;;;15.34;86.08;100337.88;5060598;28;20012;-74
2021/09/10 06:08:52;;;;;;;15.73;9.90;;;16.30;99.90;;;15.28;86.43;100341.81;5051117;28;20013;-74
2021/09/10 06:11:18;;;;;;;16.85;10.15;;;16.30;99.90;;;15.24;86.95;100337.69;5053679;28;20392;-75
2021/09/10 06:13:44;;;;;;;18.50;10.32;;;16.30;99.90;;;15.22;86.41;100331.66;5053890;28;20013;-74
2021/09/10 06:16:10;;;;;;;20.95;10.60;;;16.30;99.90;;;15.40;86.43;100348.06;5051332;28;20053;-75
2021/09/10 06:18:36;;;;;;;21.42;10.02;;;16.60;99.90;;;15.90;85.47;100359.41;5058054;28;20032;-75
2021/09/10 06:21:03;;;;;;;24.20;10.48;;;17.00;99.90;;;16.31;83.15;100343.97;5036808;28;20024;-75
2021/09/10 06:23:30;;;;;;;15.77;9.65;;;17.40;99.90;;;16.66;81.95;100351.88;5052665;28;20496;-75
2021/09/10 06:25:56;;;;;;;20.30;9.65;;;17.60;99.90;;;16.68;80.33;100347.28;5042884;28;20033;-75
2021/09/10 06:28:22;;;;;;;13.52;9.10;;;17.70;99.90;;;16.86;80.22;100354.81;5053296;28;20032;-75
2021/09/10 06:30:48;;;;;;;18.77;8.85;;;17.90;99.90;;;17.30;77.79;100367.22;5050911;28;20036;-75
2021/09/10 06:33:14;;;;;;;13.13;9.10;;;18.10;99.90;;;17.22;76.82;100351.88;5052777;28;20017;-74
2021/09/10 06:35:40;;;;;;;15.05;8.77;;;18.00;99.90;;;17.18;77.03;100358.41;5048678;28;20040;-75
2021/09/10 06:38:06;;;;;;;18.70;8.63;;;18.30;99.90;;;17.49;77.46;100376.38;5052886;28;20039;-75
2021/09/10 06:40:32;;;;;;;15.50;9.13;;;18.50;99.90;;;17.92;76.03;100381.72;5051576;28;20410;-74
2021/09/10 06:43:00;;;;;;;14.30;8.30;;;19.00;99.90;;;18.74;72.45;100417.50;5052465;28;20116;-75
2021/09/10 06:45:26;;;;;;;15.77;8.80;;;20.10;99.90;;;20.71;65.01;100486.34;5052429;28;20032;-75
2021/09/10 06:47:52;;;;;;;20.77;8.30;;;21.60;99.90;;;22.10;59.37;100519.53;5051509;28;20025;-75
2021/09/10 06:50:18;;;;;;;17.23;7.53;;;22.50;99.90;;;22.76;55.52;100526.38;5052162;28;20036;-75
2021/09/10 06:52:44;;;;;;;13.32;8.40;;;23.20;99.90;;;23.55;54.49;100571.06;5034207;28;20028;-75
2021/09/10 06:55:10;;;;;;;60.67;18.33;;;24.40;99.90;;;24.12;53.17;100569.66;5053275;28;20035;-75
2021/09/10 06:57:37;;;;;;;11.90;6.93;;;25.10;99.90;;;24.23;51.38;100547.81;5051869;28;20139;-76
2021/09/10 07:00:07;;;;;;;12.45;7.57;;;24.30;99.90;;;23.24;54.23;100500.91;5053226;28;20451;-75
2021/09/10 07:02:34;;;;;;;14.93;7.40;;;24.20;99.90;;;24.13;52.52;100564.13;5041384;28;20044;-75
2021/09/10 07:05:00;;;;;;;13.00;7.10;;;25.00;99.90;;;25.38;50.63;100594.53;5048405;28;20035;-76
2021/09/10 07:07:26;;;;;;;24.67;7.70;;;26.00;99.90;;;25.37;48.24;100547.03;5058434;28;20048;-76
2021/09/10 07:09:52;;;;;;;11.27;7.30;;;26.10;99.90;;;26.33;46.42;100803.41;5032648;28;20034;-75
2021/09/10 07:12:19;;;;;;;14.00;7.78;;;26.20;99.90;;;26.55;45.21;100756.75;5057857;28;20040;-75
2021/09/10 07:14:45;;;;;;;11.70;7.05;;;26.60;99.90;;;27.24;44.57;100774.19;5060212;28;20032;-75
2021/09/10 07:17:13;;;;;;;13.95;7.25;;;27.30;99.90;;;27.30;44.71;100443.66;5031937;28;20032;-75
2021/09/10 07:19:39;;;;;;;11.52;7.10;;;27.70;99.90;;;27.98;42.26;100971.97;5049096;28;20033;-76
2021/09/10 07:22:05;;;;;;;11.30;7.35;;;27.80;99.60;;;28.01;42.82;100940.00;5054776;28;20036;-75
2021/09/10 07:24:31;;;;;;;15.52;7.20;;;28.50;99.00;;;28.43;41.10;100948.59;5055770;28;20043;-75
2021/09/10 07:26:57;;;;;;;10.88;7.18;;;28.80;98.70;;;28.82;41.47;100964.66;5071195;28;20021;-75
2021/09/10 07:29:23;;;;;;;14.05;7.75;;;29.60;97.40;;;29.96;38.64;100986.00;5056656;28;20036;-75
2021/09/10 07:31:55;;;;;;;11.15;6.57;;;30.10;97.30;;;30.47;38.33;100979.59;5056697;28;20032;-76
2021/09/10 07:34:21;;;;;;;13.50;6.72;;;30.60;95.60;;;31.10;36.77;100974.19;5056367;28;20059;-76
2021/09/10 07:36:51;;;;;;;16.25;7.53;;;30.00;95.50;;;30.76;37.20;100909.81;5051663;28;20031;-76
2021/09/10 07:39:20;;;;;;;12.23;7.07;;;29.90;95.70;;;30.59;37.21;100855.75;5058789;28;20040;-76
2021/09/10 07:41:48;;;;;;;10.63;7.00;;;30.00;96.30;;;30.58;37.24;100834.22;5055515;28;20028;-75
2021/09/10 07:44:16;;;;;;;10.10;7.38;;;30.00;95.30;;;30.82;37.45;100822.84;5057640;28;20025;-76
2021/09/10 07:46:45;;;;;;;14.18;7.30;;;30.00;95.10;;;31.11;36.95;100826.34;5057857;28;20056;-76
2021/09/10 07:49:12;;;;;;;13.60;7.38;;;30.80;94.40;;;31.23;36.04;100819.25;5057011;28;20392;-76
2021/09/10 07:51:38;;;;;;;14.70;7.05;;;30.60;94.90;;;31.21;37.08;100824.06;5051245;28;22197;-76
2021/09/10 07:54:05;;;;;;;17.80;7.85;;;30.80;94.30;;;31.15;36.54;100759.63;5071395;28;20016;-76
2021/09/10 07:56:32;;;;;;;11.68;7.85;;;30.90;94.40;;;30.67;38.34;100740.63;5048012;28;20020;-76
2021/09/10 07:58:59;;;;;;;17.05;7.70;;;30.90;94.30;;;30.95;37.53;100756.00;5046973;28;20125;-75
2021/09/10 08:01:25;;;;;;;12.93;7.45;;;30.80;94.40;;;31.45;36.99;100767.44;5061034;28;20044;-76
2021/09/10 08:03:51;;;;;;;9.77;7.53;;;31.00;94.20;;;31.86;36.12;100772.66;5054927;28;20037;-76
2021/09/10 08:06:17;;;;;;;12.45;6.90;;;31.30;94.20;;;32.29;35.75;100776.81;5056271;28;20028;-76
2021/09/10 08:08:43;;;;;;;9.75;6.95;;;31.70;94.10;;;32.78;35.38;100783.56;5055061;28;20024;-76
2021/09/10 08:11:11;;;;;;;12.25;7.15;;;32.30;93.60;;;32.90;34.49;100757.31;5054901;28;20082;-76
2021/09/10 08:13:36;;;;;;;10.75;7.03;;;32.30;92.50;;;33.23;33.66;100764.47;5057314;28;20123;-76
2021/09/10 08:16:03;;;;;;;18.13;7.25;;;31.90;93.10;;;31.42;37.12;100637.22;5052557;28;20500;-76
2021/09/10 08:18:30;;;;;;;10.18;7.07;;;31.00;94.00;;;30.68;38.89;100609.16;5056635;28;20443;-76
2021/09/10 08:20:57;;;;;;;10.07;6.85;;;30.40;94.70;;;30.60;39.13;100585.72;5054575;28;20484;-76
2021/09/10 08:23:27;;;;;;;15.27;7.57;;;29.80;95.60;;;30.55;39.24;100603.69;5056470;28;20028;-75
2021/09/10 08:25:53;;;;;;;9.88;7.05;;;30.30;95.40;;;30.79;38.58;100594.09;5049025;28;20121;-75
2021/09/10 08:28:19;;;;;;;15.25;7.80;;;29.90;95.10;;;29.93;39.63;100524.94;5055147;28;20091;-75
2021/09/10 08:30:48;;;;;;;11.13;7.60;;;29.40;95.90;;;30.36;40.01;100572.72;5055963;28;20512;-75
2021/09/10 08:33:15;;;;;;;19.27;7.60;;;28.80;96.50;;;29.01;42.14;100488.13;5040376;28;20041;-75
2021/09/10 08:35:41;;;;;;;12.73;7.25;;;28.80;98.20;;;29.90;42.17;100565.22;5052894;28;20037;-75
2021/09/10 08:38:08;;;;;;;16.25;7.88;;;29.60;96.40;;;30.45;39.68;100583.19;5053870;28;20418;-75
2021/09/10 08:40:34;;;;;;;8.85;6.97;;;29.40;96.50;;;29.59;40.60;100501.38;5055897;28;20029;-75
2021/09/10 08:43:01;;;;;;;14.70;8.10;;;28.90;96.70;;;28.67;42.85;100472.66;5051670;28;20028;-75
2021/09/10 08:45:29;;;;;;;19.08;8.00;;;28.20;97.60;;;28.20;44.30;100464.06;5056102;28;20021;-75
2021/09/10 08:47:56;;;;;;;13.55;8.38;;;27.70;98.60;;;27.70;45.23;100434.19;5057361;28;20084;-75
2021/09/10 08:50:24;;;;;;;10.13;7.57;;;27.30;99.60;;;27.43;46.60;100430.34;5055359;28;20040;-75
2021/09/10 08:52:51;;;;;;;14.93;8.68;;;26.80;99.80;;;26.48;48.13;100382.34;5057508;28;20550;-75
2021/09/10 08:55:18;;;;;;;17.80;7.88;;;26.40;99.90;;;26.30;49.85;100396.19;5057011;28;20432;-75
2021/09/10 08:57:50;;;;;;;66.53;10.00;;;26.40;99.90;;;25.97;50.43;100370.31;5053532;28;20028;-75
2021/09/10 09:00:37;;;;;;;16.80;8.95;;;26.70;99.90;;;27.28;50.38;100483.53;5053274;28;20056;-75
2021/09/10 09:03:21;;;;;;;16.52;8.98;;;27.50;99.90;;;27.69;47.74;100483.03;5013050;28;20535;-75
2021/09/10 09:06:05;;;;;;;12.00;8.00;;;27.70;99.90;;;27.17;48.36;100426.22;5010656;28;20070;-75
2021/09/10 09:08:54;;;;;;;24.48;8.88;;;27.30;99.90;;;26.14;50.95;100367.50;5015948;28;20043;-75
2021/09/10 09:11:42;;;;;;;9.80;7.88;;;26.80;99.90;;;25.87;53.64;100391.28;5008889;28;20592;-75
2021/09/10 09:14:44;;;;;;;19.35;8.38;;;26.70;99.90;;;25.78;54.98;100376.16;5001536;28;20074;-75
2021/09/10 09:17:53;;;;;;;13.18;8.40;;;26.30;99.90;;;25.40;56.17;100368.00;5009929;28;20036;-75
2021/09/10 09:21:16;;;;;;;31.60;8.82;;;26.00;99.90;;;25.06;57.15;100355.66;5004571;28;20502;-75
2021/09/10 09:28:05;;;;;;;15.85;8.30;;;25.60;99.90;;;24.70;59.37;100337.25;5014454;28;20049;-75
2021/09/10 09:31:26;;;;;;;17.90;8.68;;;25.50;99.90;;;24.39;58.69;100285.19;5011361;28;20046;-75
2021/09/10 09:35:18;;;;;;;14.68;8.23;;;25.50;99.90;;;24.63;58.44;100309.38;4994356;28;20040;-75
2021/09/10 09:38:56;;;;;;;13.43;7.88;;;25.30;99.90;;;24.71;58.06;100332.75;5020380;28;20036;-75
2021/09/10 09:42:21;;;;;;;12.02;8.20;;;25.10;99.90;;;24.42;58.86;100299.13;5011459;28;20047;-75
2021/09/10 09:45:51;;;;;;;11.73;7.53;;;25.00;99.90;;;24.45;60.06;100314.94;5025912;28;20040;-75
2021/09/10 09:48:55;;;;;;;17.13;8.43;;;25.30;99.90;;;24.72;59.42;100321.78;5015614;28;20052;-75
2021/09/10 09:51:43;;;;;;;13.50;7.97;;;25.60;99.90;;;25.01;60.74;100357.19;5013266;28;20431;-75
2021/09/10 09:54:50;;;;;;;17.67;7.93;;;25.80;99.90;;;25.41;59.23;100358.88;5013256;28;20052;-75
2021/09/10 09:58:04;;;;;;;20.70;8.73;;;26.10;99.90;;;25.82;56.48;100399.06;5015898;28;20039;-75
2021/09/10 10:01:18;;;;;;;18.85;7.60;;;26.20;99.90;;;25.82;55.22;100376.66;5007073;28;20060;-75
2021/09/10 10:04:34;;;;;;;16.83;8.23;;;26.60;99.90;;;26.87;55.97;100440.72;5021657;28;20956;-75
2021/09/10 10:08:13;;;;;;;19.75;8.02;;;27.40;99.90;;;27.23;53.06;100432.75;5018698;28;20036;-75
2021/09/10 10:11:54;;;;;;;12.90;7.35;;;27.90;99.90;;;27.38;51.24;100394.91;5009109;28;20647;-75
2021/09/10 10:14:54;;;;;;;11.80;6.82;;;27.60;99.90;;;27.18;50.20;100371.13;5026580;28;20051;-75
2021/09/10 10:17:59;;;;;;;12.80;7.53;;;27.30;99.90;;;26.64;50.70;100333.63;5011160;28;20066;-75
2021/09/10 10:22:01;;;;;;;11.45;6.90;;;27.00;99.90;;;26.90;51.57;100368.28;5023953;28;20032;-74
2021/09/10 10:25:36;;;;;;;12.88;7.20;;;27.00;99.90;;;26.68;52.30;100348.44;5024038;28;20043;-75
2021/09/10 10:29:37;;;;;;;10.52;7.18;;;26.90;99.90;;;26.27;53.23;100323.72;5011746;28;20036;-75